sensor_id;sensor_type;location;lat;lon;timestamp;P1;durP1;ratioP1;P2;durP2;ratioP2
24357;SDS011;13668;52.154;5.580;2023-03-19T00:01:24;2.78;;;2.13;;
24357;SDS011;13668;52.154;5.580;2023-03-19T00:03:50;2.55;;;2.35;;
24357;SDS011;13668;52.154;5.580;2023-03-19T00:06:16;2.88;;;2.30;;
24357;SDS011;13668;52.154;5.580;2023-03-19T00:08:42;2.35;;;2.13;;
24357;SDS011;13668;52.154;5.580;2023-03-19T00:11:08;3.13;;;2.90;;
24357;SDS011;13668;52.154;5.580;2023-03-19T00:13:35;2.95;;;2.50;;
24357;SDS011;13668;52.154;5.580;2023-03-19T00:16:01;3.40;;;2.45;;
24357;SDS011;13668;52.154;5.580;2023-03-19T00:18:27;3.88;;;2.75;;
24357;SDS011;13668;52.154;5.580;2023-03-19T00:20:53;2.80;;;2.50;;
24357;SDS011;13668;52.154;5.580;2023-03-19T00:23:19;3.97;;;2.90;;
24357;SDS011;13668;52.154;5.580;2023-03-19T00:25:45;4.53;;;2.90;;
24357;SDS011;13668;52.154;5.580;2023-03-19T00:28:11;4.07;;;3.00;;
24357;SDS011;13668;52.154;5.580;2023-03-19T00:30:37;3.47;;;3.17;;
24357;SDS011;13668;52.154;5.580;2023-03-19T00:33:03;3.50;;;3.20;;
24357;SDS011;13668;52.154;5.580;2023-03-19T00:35:29;4.10;;;3.67;;
24357;SDS011;13668;52.154;5.580;2023-03-19T00:37:55;3.97;;;3.42;;
24357;SDS011;13668;52.154;5.580;2023-03-19T00:40:21;3.47;;;3.20;;
24357;SDS011;13668;52.154;5.580;2023-03-19T00:42:47;3.33;;;3.13;;
24357;SDS011;13668;52.154;5.580;2023-03-19T00:45:13;4.15;;;3.40;;
24357;SDS011;13668;52.154;5.580;2023-03-19T00:47:40;3.35;;;3.05;;
24357;SDS011;13668;52.154;5.580;2023-03-19T00:50:06;4.65;;;3.20;;
24357;SDS011;13668;52.154;5.580;2023-03-19T00:52:33;4.10;;;2.95;;
24357;SDS011;13668;52.154;5.580;2023-03-19T00:54:59;4.57;;;3.15;;
24357;SDS011;13668;52.154;5.580;2023-03-19T00:57:25;4.35;;;3.17;;
24357;SDS011;13668;52.154;5.580;2023-03-19T00:59:51;3.88;;;3.20;;
24357;SDS011;13668;52.154;5.580;2023-03-19T01:02:17;3.40;;;3.10;;
24357;SDS011;13668;52.154;5.580;2023-03-19T01:04:42;4.88;;;2.88;;
24357;SDS011;13668;52.154;5.580;2023-03-19T01:07:09;3.25;;;3.05;;
24357;SDS011;13668;52.154;5.580;2023-03-19T01:09:35;3.45;;;3.15;;
24357;SDS011;13668;52.154;5.580;2023-03-19T01:12:01;4.40;;;2.90;;
24357;SDS011;13668;52.154;5.580;2023-03-19T01:14:29;3.95;;;3.58;;
24357;SDS011;13668;52.154;5.580;2023-03-19T01:16:55;4.47;;;3.50;;
24357;SDS011;13668;52.154;5.580;2023-03-19T01:19:21;3.88;;;3.22;;
24357;SDS011;13668;52.154;5.580;2023-03-19T01:21:47;3.30;;;3.00;;
24357;SDS011;13668;52.154;5.580;2023-03-19T01:24:13;4.22;;;3.03;;
24357;SDS011;13668;52.154;5.580;2023-03-19T01:26:40;3.80;;;3.50;;
24357;SDS011;13668;52.154;5.580;2023-03-19T01:29:06;4.00;;;3.47;;
24357;SDS011;13668;52.154;5.580;2023-03-19T01:31:32;5.18;;;3.38;;
24357;SDS011;13668;52.154;5.580;2023-03-19T01:33:58;3.50;;;3.20;;
24357;SDS011;13668;52.154;5.580;2023-03-19T01:36:24;3.95;;;3.28;;
24357;SDS011;13668;52.154;5.580;2023-03-19T01:38:50;5.50;;;3.85;;
24357;SDS011;13668;52.154;5.580;2023-03-19T01:41:16;3.47;;;3.17;;
24357;SDS011;13668;52.154;5.580;2023-03-19T01:43:42;4.05;;;3.20;;
24357;SDS011;13668;52.154;5.580;2023-03-19T01:46:41;3.92;;;3.28;;
24357;SDS011;13668;52.154;5.580;2023-03-19T01:49:01;6.07;;;3.88;;
24357;SDS011;13668;52.154;5.580;2023-03-19T01:51:29;4.00;;;3.60;;
24357;SDS011;13668;52.154;5.580;2023-03-19T01:53:56;4.68;;;3.50;;
24357;SDS011;13668;52.154;5.580;2023-03-19T01:56:25;4.45;;;4.00;;
24357;SDS011;13668;52.154;5.580;2023-03-19T01:58:55;7.22;;;4.07;;
24357;SDS011;13668;52.154;5.580;2023-03-19T02:01:21;4.55;;;3.85;;
24357;SDS011;13668;52.154;5.580;2023-03-19T02:03:49;3.75;;;3.45;;
24357;SDS011;13668;52.154;5.580;2023-03-19T02:06:15;4.32;;;3.92;;
24357;SDS011;13668;52.154;5.580;2023-03-19T02:08:42;4.20;;;3.90;;
24357;SDS011;13668;52.154;5.580;2023-03-19T02:11:08;4.00;;;3.70;;
24357;SDS011;13668;52.154;5.580;2023-03-19T02:13:34;4.40;;;4.00;;
24357;SDS011;13668;52.154;5.580;2023-03-19T02:16:01;4.50;;;4.10;;
24357;SDS011;13668;52.154;5.580;2023-03-19T02:18:27;6.65;;;4.25;;
24357;SDS011;13668;52.154;5.580;2023-03-19T02:20:57;4.68;;;4.28;;
24357;SDS011;13668;52.154;5.580;2023-03-19T02:28:23;6.10;;;4.20;;
24357;SDS011;13668;52.154;5.580;2023-03-19T02:30:50;6.20;;;4.35;;
24357;SDS011;13668;52.154;5.580;2023-03-19T02:33:17;5.65;;;4.20;;
24357;SDS011;13668;52.154;5.580;2023-03-19T02:35:43;4.90;;;4.15;;
24357;SDS011;13668;52.154;5.580;2023-03-19T02:38:10;4.55;;;4.15;;
24357;SDS011;13668;52.154;5.580;2023-03-19T02:40:58;5.00;;;4.00;;
24357;SDS011;13668;52.154;5.580;2023-03-19T02:43:23;4.70;;;4.30;;
24357;SDS011;13668;52.154;5.580;2023-03-19T02:45:49;4.57;;;4.18;;
24357;SDS011;13668;52.154;5.580;2023-03-19T02:48:15;4.65;;;4.05;;
24357;SDS011;13668;52.154;5.580;2023-03-19T02:50:41;5.63;;;5.07;;
24357;SDS011;13668;52.154;5.580;2023-03-19T02:53:07;4.57;;;4.18;;
24357;SDS011;13668;52.154;5.580;2023-03-19T02:55:33;4.45;;;4.05;;
24357;SDS011;13668;52.154;5.580;2023-03-19T02:57:59;5.40;;;4.13;;
24357;SDS011;13668;52.154;5.580;2023-03-19T03:00:25;4.82;;;4.22;;
24357;SDS011;13668;52.154;5.580;2023-03-19T03:02:52;4.97;;;4.57;;
24357;SDS011;13668;52.154;5.580;2023-03-19T03:05:18;4.93;;;4.50;;
24357;SDS011;13668;52.154;5.580;2023-03-19T03:07:45;4.93;;;4.25;;
24357;SDS011;13668;52.154;5.580;2023-03-19T03:10:11;5.50;;;4.50;;
24357;SDS011;13668;52.154;5.580;2023-03-19T03:12:37;5.05;;;4.65;;
24357;SDS011;13668;52.154;5.580;2023-03-19T03:15:04;5.15;;;4.70;;
24357;SDS011;13668;52.154;5.580;2023-03-19T03:17:30;6.32;;;4.80;;
24357;SDS011;13668;52.154;5.580;2023-03-19T03:19:56;5.63;;;4.55;;
24357;SDS011;13668;52.154;5.580;2023-03-19T03:22:22;5.35;;;4.85;;
24357;SDS011;13668;52.154;5.580;2023-03-19T03:24:48;5.68;;;5.05;;
24357;SDS011;13668;52.154;5.580;2023-03-19T03:27:14;5.30;;;4.80;;
24357;SDS011;13668;52.154;5.580;2023-03-19T03:29:40;5.53;;;4.88;;
24357;SDS011;13668;52.154;5.580;2023-03-19T03:32:06;5.80;;;5.20;;
24357;SDS011;13668;52.154;5.580;2023-03-19T03:34:32;6.05;;;5.55;;
24357;SDS011;13668;52.154;5.580;2023-03-19T03:36:58;6.00;;;5.35;;
24357;SDS011;13668;52.154;5.580;2023-03-19T03:39:24;6.20;;;5.60;;
24357;SDS011;13668;52.154;5.580;2023-03-19T03:41:51;6.68;;;5.90;;
24357;SDS011;13668;52.154;5.580;2023-03-19T03:44:17;8.52;;;5.95;;
24357;SDS011;13668;52.154;5.580;2023-03-19T03:46:43;6.03;;;5.43;;
24357;SDS011;13668;52.154;5.580;2023-03-19T03:49:09;6.82;;;5.95;;
24357;SDS011;13668;52.154;5.580;2023-03-19T03:51:35;8.50;;;6.63;;
24357;SDS011;13668;52.154;5.580;2023-03-19T03:54:01;7.80;;;5.90;;
24357;SDS011;13668;52.154;5.580;2023-03-19T03:56:27;6.65;;;5.82;;
24357;SDS011;13668;52.154;5.580;2023-03-19T03:58:53;7.22;;;6.25;;
24357;SDS011;13668;52.154;5.580;2023-03-19T04:01:19;7.78;;;6.78;;
24357;SDS011;13668;52.154;5.580;2023-03-19T04:03:45;6.53;;;5.88;;
24357;SDS011;13668;52.154;5.580;2023-03-19T04:06:12;7.10;;;6.40;;
24357;SDS011;13668;52.154;5.580;2023-03-19T04:08:39;7.95;;;7.03;;
24357;SDS011;13668;52.154;5.580;2023-03-19T04:11:06;8.75;;;7.35;;
24357;SDS011;13668;52.154;5.580;2023-03-19T04:13:32;8.85;;;7.65;;
24357;SDS011;13668;52.154;5.580;2023-03-19T04:16:01;13.85;;;10.55;;
24357;SDS011;13668;52.154;5.580;2023-03-19T04:18:27;10.68;;;9.10;;
24357;SDS011;13668;52.154;5.580;2023-03-19T04:20:53;12.45;;;9.75;;
24357;SDS011;13668;52.154;5.580;2023-03-19T04:23:19;12.63;;;10.40;;
24357;SDS011;13668;52.154;5.580;2023-03-19T04:25:45;11.98;;;10.27;;
24357;SDS011;13668;52.154;5.580;2023-03-19T04:28:12;14.90;;;11.10;;
24357;SDS011;13668;52.154;5.580;2023-03-19T04:30:38;12.45;;;11.02;;
24357;SDS011;13668;52.154;5.580;2023-03-19T04:33:04;12.30;;;10.43;;
24357;SDS011;13668;52.154;5.580;2023-03-19T04:35:30;13.52;;;10.90;;
24357;SDS011;13668;52.154;5.580;2023-03-19T04:37:56;12.00;;;10.07;;
24357;SDS011;13668;52.154;5.580;2023-03-19T04:40:22;13.00;;;10.35;;
24357;SDS011;13668;52.154;5.580;2023-03-19T04:42:49;12.15;;;10.05;;
24357;SDS011;13668;52.154;5.580;2023-03-19T04:45:15;14.65;;;10.48;;
24357;SDS011;13668;52.154;5.580;2023-03-19T04:47:41;12.85;;;10.73;;
24357;SDS011;13668;52.154;5.580;2023-03-19T04:50:07;12.70;;;10.13;;
24357;SDS011;13668;52.154;5.580;2023-03-19T04:52:33;14.27;;;10.88;;
24357;SDS011;13668;52.154;5.580;2023-03-19T04:55:01;12.60;;;9.93;;
24357;SDS011;13668;52.154;5.580;2023-03-19T04:57:27;12.48;;;10.63;;
24357;SDS011;13668;52.154;5.580;2023-03-19T04:59:52;11.15;;;9.90;;
24357;SDS011;13668;52.154;5.580;2023-03-19T05:02:19;15.50;;;11.00;;
24357;SDS011;13668;52.154;5.580;2023-03-19T05:04:44;15.95;;;11.55;;
24357;SDS011;13668;52.154;5.580;2023-03-19T05:07:10;15.98;;;11.93;;
24357;SDS011;13668;52.154;5.580;2023-03-19T05:09:36;12.25;;;10.52;;
24357;SDS011;13668;52.154;5.580;2023-03-19T05:12:02;14.75;;;11.60;;
24357;SDS011;13668;52.154;5.580;2023-03-19T05:14:28;16.77;;;12.60;;
24357;SDS011;13668;52.154;5.580;2023-03-19T05:16:54;14.65;;;11.60;;
24357;SDS011;13668;52.154;5.580;2023-03-19T05:19:20;15.25;;;11.70;;
24357;SDS011;13668;52.154;5.580;2023-03-19T05:21:47;15.70;;;12.55;;
24357;SDS011;13668;52.154;5.580;2023-03-19T05:24:15;16.08;;;12.73;;
24357;SDS011;13668;52.154;5.580;2023-03-19T05:26:41;19.17;;;12.95;;
24357;SDS011;13668;52.154;5.580;2023-03-19T05:29:07;19.15;;;13.10;;
24357;SDS011;13668;52.154;5.580;2023-03-19T05:31:35;16.48;;;12.63;;
24357;SDS011;13668;52.154;5.580;2023-03-19T05:34:01;17.27;;;13.13;;
24357;SDS011;13668;52.154;5.580;2023-03-19T05:36:27;18.10;;;14.02;;
24357;SDS011;13668;52.154;5.580;2023-03-19T05:38:53;17.83;;;13.88;;
24357;SDS011;13668;52.154;5.580;2023-03-19T05:41:19;17.85;;;14.57;;
24357;SDS011;13668;52.154;5.580;2023-03-19T05:43:45;18.48;;;13.85;;
24357;SDS011;13668;52.154;5.580;2023-03-19T05:46:11;19.42;;;15.63;;
24357;SDS011;13668;52.154;5.580;2023-03-19T05:48:37;18.92;;;14.38;;
24357;SDS011;13668;52.154;5.580;2023-03-19T05:51:04;19.40;;;15.07;;
24357;SDS011;13668;52.154;5.580;2023-03-19T05:53:30;17.52;;;13.57;;
24357;SDS011;13668;52.154;5.580;2023-03-19T05:55:56;18.15;;;15.23;;
24357;SDS011;13668;52.154;5.580;2023-03-19T05:58:22;16.80;;;13.45;;
24357;SDS011;13668;52.154;5.580;2023-03-19T06:00:47;19.98;;;14.02;;
24357;SDS011;13668;52.154;5.580;2023-03-19T06:03:14;18.02;;;14.18;;
24357;SDS011;13668;52.154;5.580;2023-03-19T06:05:40;18.77;;;13.98;;
24357;SDS011;13668;52.154;5.580;2023-03-19T06:08:06;23.20;;;13.85;;
24357;SDS011;13668;52.154;5.580;2023-03-19T06:10:33;17.90;;;14.00;;
24357;SDS011;13668;52.154;5.580;2023-03-19T06:13:00;17.45;;;13.52;;
24357;SDS011;13668;52.154;5.580;2023-03-19T06:15:26;16.58;;;13.95;;
24357;SDS011;13668;52.154;5.580;2023-03-19T06:17:52;17.63;;;13.88;;
24357;SDS011;13668;52.154;5.580;2023-03-19T06:20:17;19.70;;;15.55;;
24357;SDS011;13668;52.154;5.580;2023-03-19T06:22:43;20.23;;;14.77;;
24357;SDS011;13668;52.154;5.580;2023-03-19T06:25:09;19.40;;;15.25;;
24357;SDS011;13668;52.154;5.580;2023-03-19T06:27:36;17.33;;;14.15;;
24357;SDS011;13668;52.154;5.580;2023-03-19T06:30:02;18.67;;;13.13;;
24357;SDS011;13668;52.154;5.580;2023-03-19T06:32:28;17.33;;;13.60;;
24357;SDS011;13668;52.154;5.580;2023-03-19T06:34:54;18.48;;;13.55;;
24357;SDS011;13668;52.154;5.580;2023-03-19T06:37:20;20.40;;;13.90;;
24357;SDS011;13668;52.154;5.580;2023-03-19T06:39:46;19.10;;;13.05;;
24357;SDS011;13668;52.154;5.580;2023-03-19T06:42:13;18.13;;;14.05;;
24357;SDS011;13668;52.154;5.580;2023-03-19T06:44:39;19.83;;;14.25;;
24357;SDS011;13668;52.154;5.580;2023-03-19T06:47:05;17.10;;;13.98;;
24357;SDS011;13668;52.154;5.580;2023-03-19T06:49:32;18.40;;;13.88;;
24357;SDS011;13668;52.154;5.580;2023-03-19T06:51:58;18.73;;;14.38;;
24357;SDS011;13668;52.154;5.580;2023-03-19T06:54:24;20.58;;;14.45;;
24357;SDS011;13668;52.154;5.580;2023-03-19T06:56:50;18.40;;;14.68;;
24357;SDS011;13668;52.154;5.580;2023-03-19T06:59:16;21.90;;;16.05;;
24357;SDS011;13668;52.154;5.580;2023-03-19T07:01:42;18.02;;;14.07;;
24357;SDS011;13668;52.154;5.580;2023-03-19T07:04:08;23.33;;;14.63;;
24357;SDS011;13668;52.154;5.580;2023-03-19T07:06:38;17.75;;;13.98;;
24357;SDS011;13668;52.154;5.580;2023-03-19T07:09:04;16.52;;;13.35;;
24357;SDS011;13668;52.154;5.580;2023-03-19T07:11:30;18.83;;;13.85;;
24357;SDS011;13668;52.154;5.580;2023-03-19T07:13:56;17.05;;;13.30;;
24357;SDS011;13668;52.154;5.580;2023-03-19T07:16:22;18.70;;;14.15;;
24357;SDS011;13668;52.154;5.580;2023-03-19T07:18:48;17.90;;;13.77;;
24357;SDS011;13668;52.154;5.580;2023-03-19T07:21:14;18.75;;;14.10;;
24357;SDS011;13668;52.154;5.580;2023-03-19T07:23:40;21.92;;;15.25;;
24357;SDS011;13668;52.154;5.580;2023-03-19T07:26:06;21.05;;;15.27;;
24357;SDS011;13668;52.154;5.580;2023-03-19T07:28:32;22.42;;;15.93;;
24357;SDS011;13668;52.154;5.580;2023-03-19T07:31:01;23.92;;;15.45;;
24357;SDS011;13668;52.154;5.580;2023-03-19T07:33:27;26.92;;;17.90;;
24357;SDS011;13668;52.154;5.580;2023-03-19T07:35:53;28.17;;;19.60;;
24357;SDS011;13668;52.154;5.580;2023-03-19T07:38:19;30.23;;;20.95;;
24357;SDS011;13668;52.154;5.580;2023-03-19T07:40:45;35.03;;;24.23;;
24357;SDS011;13668;52.154;5.580;2023-03-19T07:43:11;36.35;;;24.60;;
24357;SDS011;13668;52.154;5.580;2023-03-19T07:45:37;43.78;;;27.05;;
24357;SDS011;13668;52.154;5.580;2023-03-19T07:48:03;46.42;;;29.05;;
24357;SDS011;13668;52.154;5.580;2023-03-19T07:50:29;40.55;;;28.35;;
24357;SDS011;13668;52.154;5.580;2023-03-19T07:52:56;46.08;;;29.13;;
24357;SDS011;13668;52.154;5.580;2023-03-19T07:55:22;42.15;;;27.25;;
24357;SDS011;13668;52.154;5.580;2023-03-19T07:57:48;43.50;;;27.50;;
24357;SDS011;13668;52.154;5.580;2023-03-19T08:00:14;44.60;;;26.40;;
24357;SDS011;13668;52.154;5.580;2023-03-19T08:02:40;41.63;;;27.38;;
24357;SDS011;13668;52.154;5.580;2023-03-19T08:05:07;40.70;;;27.60;;
24357;SDS011;13668;52.154;5.580;2023-03-19T08:07:33;39.95;;;25.05;;
24357;SDS011;13668;52.154;5.580;2023-03-19T08:10:00;37.80;;;25.15;;
24357;SDS011;13668;52.154;5.580;2023-03-19T08:12:26;39.35;;;24.40;;
24357;SDS011;13668;52.154;5.580;2023-03-19T08:14:52;38.35;;;25.55;;
24357;SDS011;13668;52.154;5.580;2023-03-19T08:17:18;37.13;;;23.88;;
24357;SDS011;13668;52.154;5.580;2023-03-19T08:19:45;39.20;;;24.98;;
24357;SDS011;13668;52.154;5.580;2023-03-19T08:22:11;32.95;;;22.75;;
24357;SDS011;13668;52.154;5.580;2023-03-19T08:24:37;31.30;;;22.73;;
24357;SDS011;13668;52.154;5.580;2023-03-19T08:27:03;32.85;;;22.00;;
24357;SDS011;13668;52.154;5.580;2023-03-19T08:29:29;32.58;;;21.00;;
24357;SDS011;13668;52.154;5.580;2023-03-19T08:31:55;32.67;;;21.13;;
24357;SDS011;13668;52.154;5.580;2023-03-19T08:34:22;35.50;;;22.88;;
24357;SDS011;13668;52.154;5.580;2023-03-19T08:36:48;32.58;;;20.88;;
24357;SDS011;13668;52.154;5.580;2023-03-19T08:39:14;31.70;;;20.15;;
24357;SDS011;13668;52.154;5.580;2023-03-19T08:41:40;26.67;;;20.23;;
24357;SDS011;13668;52.154;5.580;2023-03-19T08:44:06;30.85;;;21.90;;
24357;SDS011;13668;52.154;5.580;2023-03-19T08:46:32;31.15;;;21.40;;
24357;SDS011;13668;52.154;5.580;2023-03-19T08:48:58;29.15;;;21.23;;
24357;SDS011;13668;52.154;5.580;2023-03-19T08:51:25;31.80;;;20.50;;
24357;SDS011;13668;52.154;5.580;2023-03-19T08:53:51;30.77;;;21.13;;
24357;SDS011;13668;52.154;5.580;2023-03-19T08:56:17;32.13;;;23.73;;
24357;SDS011;13668;52.154;5.580;2023-03-19T08:58:43;30.40;;;20.98;;
24357;SDS011;13668;52.154;5.580;2023-03-19T09:01:10;28.70;;;20.13;;
24357;SDS011;13668;52.154;5.580;2023-03-19T09:03:37;29.73;;;21.60;;
24357;SDS011;13668;52.154;5.580;2023-03-19T09:06:04;30.08;;;20.60;;
24357;SDS011;13668;52.154;5.580;2023-03-19T09:08:30;28.25;;;18.85;;
24357;SDS011;13668;52.154;5.580;2023-03-19T09:10:59;32.90;;;20.95;;
24357;SDS011;13668;52.154;5.580;2023-03-19T09:13:25;32.85;;;21.63;;
24357;SDS011;13668;52.154;5.580;2023-03-19T09:15:51;28.63;;;21.13;;
24357;SDS011;13668;52.154;5.580;2023-03-19T09:18:17;26.25;;;19.50;;
24357;SDS011;13668;52.154;5.580;2023-03-19T09:20:48;26.63;;;19.45;;
24357;SDS011;13668;52.154;5.580;2023-03-19T09:23:15;26.23;;;19.63;;
24357;SDS011;13668;52.154;5.580;2023-03-19T09:25:41;28.08;;;19.00;;
24357;SDS011;13668;52.154;5.580;2023-03-19T09:28:07;25.65;;;17.95;;
24357;SDS011;13668;52.154;5.580;2023-03-19T09:30:33;23.98;;;18.33;;
24357;SDS011;13668;52.154;5.580;2023-03-19T09:32:58;23.27;;;17.25;;
24357;SDS011;13668;52.154;5.580;2023-03-19T09:35:25;29.98;;;17.85;;
24357;SDS011;13668;52.154;5.580;2023-03-19T09:37:55;26.33;;;18.25;;
24357;SDS011;13668;52.154;5.580;2023-03-19T09:40:23;23.73;;;17.17;;
24357;SDS011;13668;52.154;5.580;2023-03-19T09:45:35;23.42;;;16.95;;
24357;SDS011;13668;52.154;5.580;2023-03-19T09:48:03;22.15;;;16.77;;
24357;SDS011;13668;52.154;5.580;2023-03-19T09:50:30;21.67;;;17.15;;
24357;SDS011;13668;52.154;5.580;2023-03-19T09:55:47;20.45;;;14.88;;
24357;SDS011;13668;52.154;5.580;2023-03-19T09:58:14;23.48;;;16.08;;
24357;SDS011;13668;52.154;5.580;2023-03-19T10:00:42;27.10;;;18.05;;
24357;SDS011;13668;52.154;5.580;2023-03-19T10:03:20;22.13;;;16.40;;
24357;SDS011;13668;52.154;5.580;2023-03-19T10:06:00;24.13;;;16.50;;
24357;SDS011;13668;52.154;5.580;2023-03-19T10:11:14;17.53;;;14.63;;
24357;SDS011;13668;52.154;5.580;2023-03-19T10:16:29;23.83;;;16.27;;
24357;SDS011;13668;52.154;5.580;2023-03-19T10:18:59;24.92;;;16.63;;
24357;SDS011;13668;52.154;5.580;2023-03-19T10:21:42;21.52;;;14.98;;
24357;SDS011;13668;52.154;5.580;2023-03-19T10:24:12;24.60;;;16.60;;
24357;SDS011;13668;52.154;5.580;2023-03-19T10:26:39;24.27;;;16.73;;
24357;SDS011;13668;52.154;5.580;2023-03-19T10:29:08;23.15;;;16.02;;
24357;SDS011;13668;52.154;5.580;2023-03-19T10:31:39;25.65;;;17.40;;
24357;SDS011;13668;52.154;5.580;2023-03-19T10:34:26;28.83;;;17.27;;
24357;SDS011;13668;52.154;5.580;2023-03-19T10:36:59;23.98;;;17.88;;
24357;SDS011;13668;52.154;5.580;2023-03-19T10:39:25;24.80;;;17.30;;
24357;SDS011;13668;52.154;5.580;2023-03-19T10:41:56;31.02;;;19.42;;
24357;SDS011;13668;52.154;5.580;2023-03-19T10:44:29;27.23;;;19.48;;
24357;SDS011;13668;52.154;5.580;2023-03-19T10:46:56;27.58;;;17.80;;
24357;SDS011;13668;52.154;5.580;2023-03-19T10:49:22;25.58;;;17.20;;
24357;SDS011;13668;52.154;5.580;2023-03-19T10:51:48;26.13;;;18.05;;
24357;SDS011;13668;52.154;5.580;2023-03-19T10:54:20;27.00;;;18.08;;
24357;SDS011;13668;52.154;5.580;2023-03-19T10:56:46;26.23;;;18.33;;
24357;SDS011;13668;52.154;5.580;2023-03-19T11:01:54;27.92;;;19.48;;
24357;SDS011;13668;52.154;5.580;2023-03-19T11:04:21;26.70;;;18.30;;
24357;SDS011;13668;52.154;5.580;2023-03-19T11:06:48;23.85;;;16.98;;
24357;SDS011;13668;52.154;5.580;2023-03-19T11:09:18;23.17;;;17.30;;
24357;SDS011;13668;52.154;5.580;2023-03-19T11:11:56;24.63;;;17.73;;
24357;SDS011;13668;52.154;5.580;2023-03-19T11:14:30;22.77;;;16.23;;
24357;SDS011;13668;52.154;5.580;2023-03-19T11:17:01;23.75;;;16.77;;
24357;SDS011;13668;52.154;5.580;2023-03-19T11:19:29;25.67;;;17.17;;
24357;SDS011;13668;52.154;5.580;2023-03-19T11:24:24;26.35;;;17.10;;
24357;SDS011;13668;52.154;5.580;2023-03-19T11:26:54;25.08;;;17.10;;
24357;SDS011;13668;52.154;5.580;2023-03-19T11:29:20;23.05;;;16.00;;
24357;SDS011;13668;52.154;5.580;2023-03-19T11:31:55;23.50;;;16.90;;
24357;SDS011;13668;52.154;5.580;2023-03-19T11:34:32;26.67;;;17.27;;
24357;SDS011;13668;52.154;5.580;2023-03-19T11:45:16;22.88;;;16.00;;
24357;SDS011;13668;52.154;5.580;2023-03-19T11:55:56;23.33;;;16.60;;
24357;SDS011;13668;52.154;5.580;2023-03-19T12:07:01;28.17;;;18.17;;
24357;SDS011;13668;52.154;5.580;2023-03-19T12:12:02;24.77;;;16.08;;
24357;SDS011;13668;52.154;5.580;2023-03-19T12:20:10;26.55;;;17.67;;
24357;SDS011;13668;52.154;5.580;2023-03-19T12:22:53;30.52;;;20.13;;
24357;SDS011;13668;52.154;5.580;2023-03-19T12:28:17;34.25;;;20.90;;
24357;SDS011;13668;52.154;5.580;2023-03-19T12:30:58;34.60;;;21.33;;
24357;SDS011;13668;52.154;5.580;2023-03-19T12:33:32;35.95;;;21.40;;
24357;SDS011;13668;52.154;5.580;2023-03-19T12:36:02;30.85;;;19.73;;
24357;SDS011;13668;52.154;5.580;2023-03-19T12:38:40;30.77;;;19.77;;
24357;SDS011;13668;52.154;5.580;2023-03-19T12:41:10;40.22;;;21.42;;
24357;SDS011;13668;52.154;5.580;2023-03-19T12:46:31;30.08;;;19.55;;
24357;SDS011;13668;52.154;5.580;2023-03-19T12:49:05;27.98;;;20.25;;
24357;SDS011;13668;52.154;5.580;2023-03-19T12:51:34;29.60;;;19.13;;
24357;SDS011;13668;52.154;5.580;2023-03-19T12:56:40;27.92;;;19.25;;
24357;SDS011;13668;52.154;5.580;2023-03-19T12:59:13;25.52;;;17.35;;
24357;SDS011;13668;52.154;5.580;2023-03-19T13:01:46;27.80;;;19.40;;
24357;SDS011;13668;52.154;5.580;2023-03-19T13:04:15;28.38;;;18.23;;
24357;SDS011;13668;52.154;5.580;2023-03-19T13:06:51;24.75;;;17.80;;
24357;SDS011;13668;52.154;5.580;2023-03-19T13:09:24;27.10;;;19.08;;
24357;SDS011;13668;52.154;5.580;2023-03-19T13:11:53;25.25;;;17.02;;
24357;SDS011;13668;52.154;5.580;2023-03-19T13:17:02;28.90;;;18.70;;
24357;SDS011;13668;52.154;5.580;2023-03-19T13:19:40;28.52;;;18.73;;
24357;SDS011;13668;52.154;5.580;2023-03-19T13:22:08;27.10;;;18.17;;
24357;SDS011;13668;52.154;5.580;2023-03-19T13:24:36;21.20;;;14.98;;
24357;SDS011;13668;52.154;5.580;2023-03-19T13:27:03;25.37;;;16.17;;
24357;SDS011;13668;52.154;5.580;2023-03-19T13:29:31;22.23;;;15.13;;
24357;SDS011;13668;52.154;5.580;2023-03-19T13:32:01;24.05;;;15.73;;
24357;SDS011;13668;52.154;5.580;2023-03-19T13:34:35;20.65;;;14.63;;
24357;SDS011;13668;52.154;5.580;2023-03-19T13:39:36;22.10;;;14.45;;
24357;SDS011;13668;52.154;5.580;2023-03-19T13:44:41;20.85;;;13.18;;
24357;SDS011;13668;52.154;5.580;2023-03-19T13:57:55;21.70;;;13.45;;
24357;SDS011;13668;52.154;5.580;2023-03-19T14:03:21;18.23;;;12.15;;
24357;SDS011;13668;52.154;5.580;2023-03-19T14:05:48;20.40;;;12.27;;
24357;SDS011;13668;52.154;5.580;2023-03-19T14:08:16;19.13;;;11.63;;
24357;SDS011;13668;52.154;5.580;2023-03-19T14:10:48;15.75;;;10.38;;
24357;SDS011;13668;52.154;5.580;2023-03-19T14:13:31;19.40;;;11.80;;
24357;SDS011;13668;52.154;5.580;2023-03-19T14:16:14;21.42;;;12.48;;
24357;SDS011;13668;52.154;5.580;2023-03-19T14:18:41;23.50;;;13.48;;
24357;SDS011;13668;52.154;5.580;2023-03-19T14:21:14;21.45;;;12.63;;
24357;SDS011;13668;52.154;5.580;2023-03-19T14:23:41;20.95;;;12.20;;
24357;SDS011;13668;52.154;5.580;2023-03-19T14:26:19;22.48;;;12.05;;
24357;SDS011;13668;52.154;5.580;2023-03-19T14:28:59;19.85;;;11.88;;
24357;SDS011;13668;52.154;5.580;2023-03-19T14:34:00;20.42;;;12.10;;
24357;SDS011;13668;52.154;5.580;2023-03-19T14:36:27;19.42;;;11.15;;
24357;SDS011;13668;52.154;5.580;2023-03-19T14:38:55;17.13;;;10.60;;
24357;SDS011;13668;52.154;5.580;2023-03-19T14:41:22;16.98;;;11.15;;
24357;SDS011;13668;52.154;5.580;2023-03-19T14:53:51;18.60;;;11.75;;
24357;SDS011;13668;52.154;5.580;2023-03-19T14:56:36;21.67;;;11.50;;
24357;SDS011;13668;52.154;5.580;2023-03-19T14:59:02;19.23;;;11.82;;
24357;SDS011;13668;52.154;5.580;2023-03-19T15:01:28;20.33;;;11.60;;
24357;SDS011;13668;52.154;5.580;2023-03-19T15:03:59;18.98;;;12.38;;
24357;SDS011;13668;52.154;5.580;2023-03-19T15:06:45;26.23;;;16.67;;
24357;SDS011;13668;52.154;5.580;2023-03-19T15:09:26;25.10;;;12.98;;
24357;SDS011;13668;52.154;5.580;2023-03-19T15:14:33;21.23;;;12.18;;
24357;SDS011;13668;52.154;5.580;2023-03-19T15:19:27;18.00;;;12.38;;
24357;SDS011;13668;52.154;5.580;2023-03-19T15:22:04;20.30;;;12.15;;
24357;SDS011;13668;52.154;5.580;2023-03-19T15:24:30;18.77;;;12.07;;
24357;SDS011;13668;52.154;5.580;2023-03-19T15:26:56;18.45;;;12.70;;
24357;SDS011;13668;52.154;5.580;2023-03-19T15:29:32;20.30;;;12.50;;
24357;SDS011;13668;52.154;5.580;2023-03-19T15:31:58;21.42;;;12.35;;
24357;SDS011;13668;52.154;5.580;2023-03-19T15:34:25;23.33;;;12.38;;
24357;SDS011;13668;52.154;5.580;2023-03-19T15:36:53;16.13;;;11.27;;
24357;SDS011;13668;52.154;5.580;2023-03-19T15:39:20;18.38;;;12.57;;
24357;SDS011;13668;52.154;5.580;2023-03-19T15:41:48;17.08;;;11.13;;
24357;SDS011;13668;52.154;5.580;2023-03-19T15:44:21;21.75;;;12.80;;
24357;SDS011;13668;52.154;5.580;2023-03-19T15:46:49;23.35;;;11.52;;
24357;SDS011;13668;52.154;5.580;2023-03-19T15:49:23;18.27;;;11.20;;
24357;SDS011;13668;52.154;5.580;2023-03-19T15:51:51;21.77;;;12.98;;
24357;SDS011;13668;52.154;5.580;2023-03-19T15:54:19;22.30;;;12.98;;
24357;SDS011;13668;52.154;5.580;2023-03-19T15:56:46;22.67;;;12.57;;
24357;SDS011;13668;52.154;5.580;2023-03-19T15:59:13;20.25;;;12.95;;
24357;SDS011;13668;52.154;5.580;2023-03-19T16:01:39;22.58;;;13.35;;
24357;SDS011;13668;52.154;5.580;2023-03-19T16:04:06;24.58;;;14.75;;
24357;SDS011;13668;52.154;5.580;2023-03-19T16:06:36;25.35;;;15.60;;
24357;SDS011;13668;52.154;5.580;2023-03-19T16:12:22;25.80;;;15.45;;
24357;SDS011;13668;52.154;5.580;2023-03-19T16:14:52;27.67;;;17.10;;
24357;SDS011;13668;52.154;5.580;2023-03-19T16:17:18;25.38;;;17.52;;